Time;durP1;ratioP1;P1;durP2;ratioP2;P2;SDS_P1;SDS_P2;PMS_P1;PMS_P2;Temp;Humidity;BMP_temperature;BMP_pressure;BME280_temperature;BME280_humidity;BME280_pressure;Samples;Min_cycle;Max_cycle;Signal;HPM_P1;HPM_P2
2023/09/12 00:02:15;;;;;;;12.27;10.98;;;23.30;54.10;;;;;;4980008;28;114916;-79
2023/09/12 00:04:42;;;;;;;13.27;11.52;;;23.30;54.10;;;;;;4981204;28;114827;-79
2023/09/12 00:07:09;;;;;;;15.18;12.05;;;23.30;54.10;;;;;;4980781;28;114319;-78
2023/09/12 00:09:36;;;;;;;14.73;12.85;;;23.30;54.20;;;;;;4982192;28;114680;-79
2023/09/12 00:12:03;;;;;;;13.93;12.52;;;23.20;54.20;;;;;;4982517;28;114941;-79
2023/09/12 00:16:59;;;;;;;15.45;13.85;;;23.20;54.20;;;;;;5040545;27;1384009;-77
2023/09/12 00:19:26;;;;;;;15.80;12.40;;;23.10;53.50;;;;;;5065577;27;114094;-77
2023/09/12 00:21:53;;;;;;;14.50;12.85;;;23.10;54.20;;;;;;5064317;27;114823;-77
2023/09/12 00:24:20;;;;;;;13.02;11.70;;;23.00;54.10;;;;;;5064096;27;115099;-77
2023/09/12 00:26:47;;;;;;;12.80;11.48;;;23.00;54.40;;;;;;5064966;27;114401;-79
2023/09/12 00:29:14;;;;;;;13.13;11.82;;;23.00;54.50;;;;;;5046823;27;114201;-79
2023/09/12 00:31:41;;;;;;;15.98;12.07;;;23.00;54.40;;;;;;5045722;27;114882;-79
2023/09/12 00:34:08;;;;;;;14.27;11.82;;;23.00;54.60;;;;;;5028226;27;118043;-79
2023/09/12 00:36:37;;;;;;;13.00;11.70;;;23.00;54.20;;;;;;5029877;27;114409;-79
2023/09/12 00:39:04;;;;;;;12.57;11.27;;;23.00;54.20;;;;;;5064998;27;114382;-79
2023/09/12 00:41:32;;;;;;;12.75;11.38;;;23.00;54.50;;;;;;5045596;27;114947;-76
2023/09/12 00:43:59;;;;;;;15.55;12.55;;;23.00;54.50;;;;;;5063619;27;114571;-79
2023/09/12 00:46:26;;;;;;;13.10;11.65;;;23.00;53.80;;;;;;5046066;27;114180;-76
2023/09/12 00:48:53;;;;;;;13.68;12.27;;;23.00;54.20;;;;;;5029856;27;114097;-77
2023/09/12 00:51:20;;;;;;;13.82;12.02;;;23.00;53.90;;;;;;5028903;27;115308;-78
2023/09/12 00:53:48;;;;;;;13.45;12.05;;;23.00;54.30;;;;;;5045208;27;114711;-77
2023/09/12 00:56:15;;;;;;;13.15;11.75;;;23.00;54.20;;;;;;5046104;27;114733;-77
2023/09/12 00:58:43;;;;;;;13.23;11.45;;;23.00;54.20;;;;;;5046154;27;114280;-77
2023/09/12 01:01:10;;;;;;;14.85;12.00;;;22.90;54.40;;;;;;5063420;27;115208;-77
2023/09/12 01:03:37;;;;;;;13.68;11.52;;;22.90;54.40;;;;;;5028642;27;114632;-78
2023/09/12 01:06:05;;;;;;;15.27;12.75;;;22.90;54.60;;;;;;5064375;27;114248;-78
2023/09/12 01:08:32;;;;;;;13.30;11.27;;;22.90;54.10;;;;;;5046078;27;114486;-78
2023/09/12 01:10:59;;;;;;;14.05;11.95;;;23.00;54.60;;;;;;5044829;27;116123;-78
2023/09/12 01:13:26;;;;;;;14.60;12.02;;;22.90;54.40;;;;;;5028445;27;114619;-78
2023/09/12 01:15:53;;;;;;;15.95;11.80;;;22.90;54.60;;;;;;5045704;27;114425;-78
2023/09/12 01:18:21;;;;;;;12.32;11.05;;;22.80;54.30;;;;;;5046157;27;115103;-79
2023/09/12 01:21:15;;;;;;;11.60;10.35;;;22.80;54.50;;;;;;5063127;27;114942;-79
2023/09/12 01:23:46;;;;;;;12.35;11.05;;;22.80;54.50;;;;;;5030084;27;114607;-78
2023/09/12 01:26:34;;;;;;;13.95;12.40;;;22.80;54.70;;;;;;5062590;27;114427;-78
2023/09/12 01:29:01;;;;;;;14.57;12.32;;;22.90;54.30;;;;;;5016381;27;114545;-78
2023/09/12 01:31:28;;;;;;;15.10;12.32;;;22.80;54.50;;;;;;5031155;27;114920;-78
2023/09/12 01:33:57;;;;;;;14.95;12.02;;;22.80;54.60;;;;;;5014704;27;115279;-78
2023/09/12 01:36:24;;;;;;;13.48;11.18;;;22.90;54.50;;;;;;5032022;27;114159;-78
2023/09/12 01:38:51;;;;;;;12.65;11.32;;;22.90;54.60;;;;;;5032357;27;114431;-78
2023/09/12 01:41:19;;;;;;;14.73;11.68;;;22.90;54.50;;;;;;5014320;27;115041;-78
2023/09/12 01:43:46;;;;;;;12.43;11.02;;;22.90;54.30;;;;;;5014318;27;114556;-78
2023/09/12 01:46:14;;;;;;;12.45;11.13;;;22.90;54.20;;;;;;5015742;27;114278;-78
2023/09/12 01:48:41;;;;;;;12.23;10.98;;;22.90;54.50;;;;;;5050629;27;114491;-78
2023/09/12 01:51:08;;;;;;;12.00;10.77;;;22.80;54.50;;;;;;5014390;27;117333;-78
2023/09/12 01:53:36;;;;;;;12.65;11.10;;;22.90;54.60;;;;;;5014362;27;114591;-78
2023/09/12 01:56:03;;;;;;;13.90;11.75;;;22.90;54.30;;;;;;4998572;27;114210;-79
2023/09/12 01:58:30;;;;;;;12.10;10.80;;;22.90;54.10;;;;;;5031950;27;114335;-79
2023/09/12 02:00:57;;;;;;;14.10;12.07;;;22.90;54.40;;;;;;5014239;27;114901;-79
2023/09/12 02:03:24;;;;;;;12.98;11.20;;;22.80;54.20;;;;;;5013765;27;114714;-78
2023/09/12 02:05:52;;;;;;;12.40;11.25;;;22.80;54.40;;;;;;5050042;27;114311;-79
2023/09/12 02:08:19;;;;;;;13.38;11.43;;;22.80;54.40;;;;;;5031839;27;114424;-79
2023/09/12 02:10:47;;;;;;;11.82;10.32;;;22.80;54.20;;;;;;5030619;27;115466;-79
2023/09/12 02:13:14;;;;;;;12.02;10.73;;;22.80;54.60;;;;;;5013873;27;115153;-79
2023/09/12 02:15:41;;;;;;;12.23;10.63;;;22.80;54.40;;;;;;5049063;27;114308;-78
2023/09/12 02:18:08;;;;;;;12.35;11.05;;;22.80;54.40;;;;;;5049528;27;114722;-79
2023/09/12 02:20:38;;;;;;;12.90;11.35;;;22.80;54.20;;;;;;5048680;27;114916;-79
2023/09/12 02:23:05;;;;;;;13.18;11.88;;;22.80;53.90;;;;;;5048638;27;114641;-79
2023/09/12 02:25:32;;;;;;;15.30;11.82;;;22.80;53.90;;;;;;5031701;27;114188;-79
2023/09/12 02:27:59;;;;;;;12.82;11.50;;;22.80;54.20;;;;;;5031705;27;114047;-78
2023/09/12 02:30:26;;;;;;;11.88;10.68;;;22.70;54.40;;;;;;5048648;27;115461;-78
2023/09/12 02:32:53;;;;;;;13.45;11.77;;;22.70;54.60;;;;;;5030369;27;114956;-79
2023/09/12 02:35:20;;;;;;;13.18;11.05;;;22.70;54.30;;;;;;5031473;27;114207;-79
2023/09/12 02:37:47;;;;;;;13.57;11.15;;;22.70;54.50;;;;;;5049411;27;114294;-78
2023/09/12 02:40:15;;;;;;;13.13;11.40;;;22.70;54.70;;;;;;5029452;27;114841;-78
2023/09/12 02:42:42;;;;;;;12.27;10.88;;;22.70;54.40;;;;;;5030218;27;114702;-78
2023/09/12 02:45:10;;;;;;;12.68;11.18;;;22.70;54.70;;;;;;5049348;27;114368;-78
2023/09/12 02:47:37;;;;;;;12.95;11.20;;;22.70;54.20;;;;;;5031446;27;114393;-78
2023/09/12 02:50:04;;;;;;;12.63;10.20;;;22.60;54.60;;;;;;5029965;27;115075;-78
2023/09/12 02:52:31;;;;;;;11.68;10.48;;;22.60;54.60;;;;;;5048198;27;114611;-78
2023/09/12 02:54:59;;;;;;;12.35;10.23;;;22.60;54.80;;;;;;5030697;27;114423;-79
2023/09/12 02:57:26;;;;;;;13.00;10.25;;;22.70;54.80;;;;;;5014220;27;114560;-78
2023/09/12 02:59:53;;;;;;;12.65;11.05;;;22.70;54.80;;;;;;5028811;27;115318;-78
2023/09/12 03:02:20;;;;;;;11.45;10.27;;;22.80;54.70;;;;;;4996274;27;115761;-77
2023/09/12 03:04:47;;;;;;;11.85;10.52;;;22.80;54.60;;;;;;5030618;27;114322;-78
2023/09/12 03:07:14;;;;;;;12.65;9.95;;;22.80;54.60;;;;;;5030849;27;114507;-78
2023/09/12 03:09:41;;;;;;;12.38;11.13;;;22.80;54.50;;;;;;5030564;27;114999;-78
2023/09/12 03:12:08;;;;;;;12.48;11.18;;;22.80;54.40;;;;;;5012468;27;115202;-78
2023/09/12 03:14:36;;;;;;;12.25;10.88;;;22.80;54.40;;;;;;5014016;27;114184;-78
2023/09/12 03:17:03;;;;;;;13.00;10.45;;;22.80;54.50;;;;;;5048789;27;114239;-78
2023/09/12 03:19:32;;;;;;;11.88;10.73;;;22.70;54.40;;;;;;5030125;27;114953;-77
2023/09/12 03:21:59;;;;;;;11.18;10.00;;;22.80;54.40;;;;;;5030130;27;115120;-78
2023/09/12 03:24:28;;;;;;;13.65;10.60;;;22.70;54.50;;;;;;5049374;27;114160;-78
2023/09/12 03:26:56;;;;;;;14.05;10.90;;;22.80;54.50;;;;;;5049425;27;114355;-78
2023/09/12 03:29:23;;;;;;;12.57;10.70;;;22.70;54.20;;;;;;5048043;27;114829;-79
2023/09/12 03:31:50;;;;;;;11.48;10.27;;;22.70;54.70;;;;;;5029989;27;115128;-79
2023/09/12 03:34:18;;;;;;;13.18;11.75;;;22.60;54.70;;;;;;5031120;27;114183;-78
2023/09/12 03:36:45;;;;;;;14.13;10.70;;;22.60;54.20;;;;;;5049169;27;114316;-79
2023/09/12 03:39:13;;;;;;;14.02;11.27;;;22.60;54.40;;;;;;5047647;27;115849;-78
2023/09/12 03:41:40;;;;;;;11.32;10.23;;;22.60;54.60;;;;;;5029594;27;114739;-79
2023/09/12 03:44:08;;;;;;;10.90;9.73;;;22.60;54.70;;;;;;5013014;27;114357;-78
2023/09/12 03:46:36;;;;;;;12.25;10.35;;;22.60;54.80;;;;;;5031204;27;114205;-79
2023/09/12 03:49:03;;;;;;;11.35;10.18;;;22.60;54.80;;;;;;5029394;27;114863;-79
2023/09/12 03:51:30;;;;;;;11.35;10.18;;;22.50;54.70;;;;;;5028964;27;114562;-78
2023/09/12 03:54:05;;;;;;;13.35;11.20;;;22.60;54.70;;;;;;5030425;27;114309;-78
2023/09/12 03:56:32;;;;;;;11.45;10.27;;;22.60;54.50;;;;;;5048529;27;114500;-78
2023/09/12 03:58:59;;;;;;;12.75;11.13;;;22.60;54.80;;;;;;5028665;27;116652;-76
2023/09/12 04:01:27;;;;;;;13.32;11.93;;;22.60;54.60;;;;;;4996023;27;114845;-79
2023/09/12 04:03:54;;;;;;;12.93;10.90;;;22.60;54.50;;;;;;5048233;27;114194;-78
2023/09/12 04:06:22;;;;;;;14.23;12.77;;;22.60;54.70;;;;;;5048269;27;114268;-77
2023/09/12 04:08:49;;;;;;;12.50;10.95;;;22.60;54.40;;;;;;5028765;27;115515;-78
2023/09/12 04:11:18;;;;;;;12.98;11.68;;;22.60;54.60;;;;;;5029039;27;114756;-78
2023/09/12 04:13:57;;;;;;;12.68;11.10;;;22.60;54.50;;;;;;5014695;27;114372;-78
2023/09/12 04:16:24;;;;;;;15.70;13.60;;;22.50;54.70;;;;;;5047346;27;114260;-78
2023/09/12 04:18:52;;;;;;;11.85;10.65;;;22.50;54.40;;;;;;5046976;27;114994;-78
2023/09/12 04:21:19;;;;;;;13.57;12.15;;;22.50;54.80;;;;;;5028762;27;114565;-77
2023/09/12 04:23:46;;;;;;;13.25;11.95;;;22.50;54.70;;;;;;5029693;27;114478;-77
2023/09/12 04:26:14;;;;;;;13.95;11.85;;;22.50;54.80;;;;;;5013294;27;114427;-78
2023/09/12 04:28:43;;;;;;;14.23;12.73;;;22.50;54.60;;;;;;5046776;27;115010;-78
2023/09/12 04:31:10;;;;;;;13.27;11.98;;;22.50;54.50;;;;;;5046794;27;115045;-78
2023/09/12 04:33:37;;;;;;;15.07;13.30;;;22.50;54.70;;;;;;5012949;27;114073;-78
2023/09/12 04:36:05;;;;;;;13.30;12.00;;;22.50;54.50;;;;;;5029513;27;114157;-78
2023/09/12 04:38:33;;;;;;;14.18;12.52;;;22.50;54.30;;;;;;5028584;27;115535;-78
2023/09/12 04:41:06;;;;;;;13.88;12.05;;;22.50;54.50;;;;;;5028390;27;114658;-79
2023/09/12 04:43:33;;;;;;;13.37;11.97;;;22.50;54.30;;;;;;5013748;27;114428;-79
2023/09/12 04:46:00;;;;;;;14.10;12.63;;;22.50;54.70;;;;;;5029605;27;114214;-79
2023/09/12 04:48:29;;;;;;;14.48;12.93;;;22.50;54.20;;;;;;5011978;27;114987;-78
2023/09/12 04:50:56;;;;;;;12.65;11.35;;;22.50;54.30;;;;;;5047011;27;115132;-78
2023/09/12 04:53:23;;;;;;;14.27;12.43;;;22.60;54.60;;;;;;5029329;27;114376;-78
2023/09/12 04:55:55;;;;;;;13.52;12.23;;;22.60;54.30;;;;;;5013125;27;114526;-79
2023/09/12 04:58:22;;;;;;;12.45;11.15;;;22.60;54.60;;;;;;5011887;27;114951;-78
2023/09/12 05:00:49;;;;;;;13.85;11.70;;;22.60;54.40;;;;;;5046769;27;114579;-77
2023/09/12 05:03:16;;;;;;;15.30;12.15;;;22.80;53.80;;;;;;4998210;27;114147;-78
2023/09/12 05:05:47;;;;;;;13.65;12.13;;;22.80;54.00;;;;;;5032261;27;114343;-78
2023/09/12 05:08:14;;;;;;;14.95;12.70;;;22.80;53.80;;;;;;5015492;27;114917;-78
2023/09/12 05:10:44;;;;;;;14.02;12.50;;;22.90;53.70;;;;;;5031693;27;115963;-79
2023/09/12 05:13:11;;;;;;;13.32;11.98;;;23.00;53.50;;;;;;5032855;27;114530;-79
2023/09/12 05:15:40;;;;;;;14.10;12.45;;;23.00;53.30;;;;;;5032318;27;114359;-79
2023/09/12 05:18:07;;;;;;;13.52;12.10;;;23.00;53.00;;;;;;5031889;27;115086;-79
2023/09/12 05:20:35;;;;;;;12.82;11.55;;;23.10;53.20;;;;;;5031603;27;114941;-79
2023/09/12 05:23:03;;;;;;;13.23;11.90;;;23.20;53.20;;;;;;5032482;27;114337;-79
2023/09/12 05:25:30;;;;;;;14.85;12.52;;;23.30;52.60;;;;;;5016255;27;114349;-79
2023/09/12 05:27:57;;;;;;;15.80;12.88;;;23.20;52.80;;;;;;5031749;27;114890;-79
2023/09/12 05:30:24;;;;;;;13.30;11.98;;;23.10;52.60;;;;;;5031769;27;114652;-77
2023/09/12 05:32:52;;;;;;;12.95;11.70;;;23.10;52.50;;;;;;5032199;27;114383;-77
2023/09/12 05:35:19;;;;;;;16.50;12.52;;;23.00;52.60;;;;;;5050504;27;114188;-77
2023/09/12 05:37:50;;;;;;;13.00;11.68;;;23.00;52.70;;;;;;5030758;27;116111;-78
2023/09/12 05:40:18;;;;;;;12.75;11.40;;;22.90;53.40;;;;;;4980726;27;117653;-79
2023/09/12 05:42:45;;;;;;;13.07;11.77;;;23.00;52.90;;;;;;5032044;27;114062;-78
2023/09/12 05:45:12;;;;;;;13.15;11.90;;;23.00;53.30;;;;;;5032397;27;114383;-77
2023/09/12 05:47:40;;;;;;;13.18;11.85;;;23.00;53.20;;;;;;5049359;27;114900;-78
2023/09/12 05:50:07;;;;;;;13.98;11.02;;;23.10;53.10;;;;;;5049401;27;115124;-78
2023/09/12 05:52:34;;;;;;;13.15;11.75;;;23.30;52.80;;;;;;5032279;27;114539;-78
2023/09/12 05:55:01;;;;;;;12.45;11.15;;;23.50;52.50;;;;;;5032217;27;114285;-78
2023/09/12 05:57:29;;;;;;;11.88;10.68;;;23.60;52.00;;;;;;5031176;27;115497;-78
2023/09/12 05:59:56;;;;;;;14.90;10.73;;;23.80;51.60;;;;;;5049172;27;114676;-78
2023/09/12 06:02:23;;;;;;;13.15;10.77;;;23.80;51.00;;;;;;5050232;27;114210;-78
2023/09/12 06:04:50;;;;;;;12.98;10.15;;;23.90;51.10;;;;;;5032002;27;114208;-78
2023/09/12 06:07:18;;;;;;;12.60;11.30;;;24.00;51.10;;;;;;5048796;27;114915;-78
2023/09/12 06:09:45;;;;;;;13.77;10.77;;;24.10;50.80;;;;;;5030731;27;114694;-77
2023/09/12 06:12:12;;;;;;;12.32;11.02;;;24.20;50.60;;;;;;5049760;27;114292;-78
2023/09/12 06:14:39;;;;;;;11.73;10.35;;;24.20;50.50;;;;;;5049800;27;114410;-77
2023/09/12 06:17:06;;;;;;;11.35;9.82;;;24.30;50.40;;;;;;5029907;27;118262;-78
2023/09/12 06:19:33;;;;;;;12.55;9.82;;;24.30;50.00;;;;;;5048739;27;116781;-78
2023/09/12 06:22:00;;;;;;;11.57;9.82;;;24.40;49.80;;;;;;5050189;27;114206;-78
2023/09/12 06:24:27;;;;;;;11.38;10.23;;;24.50;49.50;;;;;;5015513;27;114300;-77
2023/09/12 06:26:54;;;;;;;11.10;9.98;;;24.60;49.70;;;;;;5030554;27;115010;-77
2023/09/12 06:29:21;;;;;;;20.35;10.93;;;24.70;49.40;;;;;;5029587;27;117026;-78
2023/09/12 06:31:48;;;;;;;10.95;9.65;;;24.80;49.10;;;;;;5049655;27;114317;-78
2023/09/12 06:34:15;;;;;;;12.43;9.75;;;24.80;48.70;;;;;;5049787;27;114338;-78
2023/09/12 06:36:44;;;;;;;12.88;9.85;;;24.80;48.60;;;;;;5013709;27;114873;-78
2023/09/12 06:39:12;;;;;;;12.32;9.43;;;24.80;48.90;;;;;;5048706;27;114605;-78
2023/09/12 06:41:39;;;;;;;11.32;9.50;;;24.90;48.70;;;;;;5049559;27;114096;-78
2023/09/12 06:44:07;;;;;;;13.05;9.05;;;25.00;48.60;;;;;;5049763;27;114378;-79
2023/09/12 06:46:37;;;;;;;12.02;9.90;;;25.00;48.50;;;;;;5048493;27;115015;-79
2023/09/12 06:49:05;;;;;;;12.98;10.07;;;25.00;48.60;;;;;;5013820;27;115110;-78
2023/09/12 06:51:33;;;;;;;12.30;11.00;;;25.10;48.80;;;;;;5031257;27;114392;-78
2023/09/12 06:54:05;;;;;;;14.00;10.30;;;25.20;48.80;;;;;;5054067;27;114237;-77
2023/09/12 06:56:32;;;;;;;13.93;9.38;;;25.20;48.70;;;;;;5030138;27;114834;-78
2023/09/12 06:58:59;;;;;;;15.35;9.85;;;25.30;48.50;;;;;;5029076;27;116636;-79
2023/09/12 07:01:26;;;;;;;11.00;9.82;;;25.30;48.60;;;;;;5030994;27;114464;-78
2023/09/12 07:03:56;;;;;;;13.73;11.07;;;25.40;48.30;;;;;;5014801;27;114077;-78
2023/09/12 07:06:23;;;;;;;11.25;9.73;;;25.50;48.20;;;;;;5012794;27;118571;-79
2023/09/12 07:08:51;;;;;;;12.02;9.70;;;25.60;47.90;;;;;;5030155;27;114901;-79
2023/09/12 07:11:19;;;;;;;11.40;10.20;;;25.70;47.70;;;;;;5049009;27;114243;-79
2023/09/12 07:13:46;;;;;;;13.15;10.38;;;25.70;47.80;;;;;;4998493;27;114085;-78
2023/09/12 07:16:13;;;;;;;14.25;10.88;;;25.80;47.60;;;;;;5047702;27;115353;-79
2023/09/12 07:18:41;;;;;;;13.80;10.52;;;25.80;47.80;;;;;;5029732;27;116057;-80
2023/09/12 07:21:10;;;;;;;11.00;9.70;;;25.80;47.70;;;;;;5030857;27;114602;-80
2023/09/12 07:23:37;;;;;;;14.30;9.48;;;25.80;47.60;;;;;;5031090;27;114427;-79
2023/09/12 07:26:04;;;;;;;11.68;9.85;;;25.80;47.50;;;;;;5029134;27;114857;-78
2023/09/12 07:28:31;;;;;;;12.35;9.80;;;25.80;47.60;;;;;;5047363;27;115712;-79
2023/09/12 07:30:58;;;;;;;13.32;9.30;;;25.90;47.40;;;;;;4997132;27;114109;-79
2023/09/12 07:33:26;;;;;;;12.07;9.70;;;25.90;47.50;;;;;;5049136;27;114597;-78
2023/09/12 07:35:53;;;;;;;13.18;8.82;;;26.00;47.30;;;;;;5047790;27;114947;-78
2023/09/12 07:38:21;;;;;;;9.88;8.85;;;26.00;47.00;;;;;;5047760;27;114701;-78
2023/09/12 07:40:48;;;;;;;10.27;9.18;;;26.00;46.70;;;;;;5048890;27;114030;-78
2023/09/12 07:43:15;;;;;;;10.82;9.43;;;25.90;46.80;;;;;;5049110;27;114493;-78
2023/09/12 07:45:42;;;;;;;11.77;8.52;;;26.00;46.80;;;;;;5047713;27;115393;-78
2023/09/12 07:48:11;;;;;;;12.75;8.27;;;26.10;46.40;;;;;;5029943;27;118040;-79
2023/09/12 07:50:38;;;;;;;12.25;8.45;;;26.20;46.60;;;;;;5048641;27;114178;-80
2023/09/12 07:53:06;;;;;;;10.05;8.10;;;26.20;46.00;;;;;;5048612;27;114235;-79
2023/09/12 07:55:45;;;;;;;11.95;8.20;;;26.30;46.10;;;;;;5029511;27;114801;-78
2023/09/12 07:58:18;;;;;;;8.77;7.72;;;26.30;45.80;;;;;;4995683;27;116577;-79
2023/09/12 08:00:46;;;;;;;12.55;8.65;;;26.30;46.00;;;;;;5013687;27;114239;-80
2023/09/12 08:03:14;;;;;;;10.55;8.13;;;26.40;46.10;;;;;;5013697;27;114282;-77
2023/09/12 08:05:41;;;;;;;9.77;7.70;;;26.50;45.90;;;;;;5011744;27;117139;-79
2023/09/12 08:08:08;;;;;;;19.88;9.27;;;26.60;45.30;;;;;;5047476;27;114939;-79
2023/09/12 08:10:35;;;;;;;8.77;7.88;;;26.70;46.00;;;;;;5048031;27;114590;-79
2023/09/12 08:13:02;;;;;;;10.05;8.57;;;26.80;46.00;;;;;;5013734;27;114290;-80
2023/09/12 08:15:29;;;;;;;10.52;8.45;;;26.90;45.70;;;;;;5025000;28;114995;-78
2023/09/12 08:17:56;;;;;;;10.82;8.77;;;27.00;45.80;;;;;;5027127;28;114651;-79
2023/09/12 08:20:24;;;;;;;13.15;8.45;;;27.10;45.30;;;;;;5026297;28;114801;-79
2023/09/12 08:22:51;;;;;;;12.63;8.10;;;27.30;45.20;;;;;;5026999;28;114276;-79
2023/09/12 08:25:18;;;;;;;10.20;7.75;;;27.30;44.50;;;;;;5008249;28;117023;-79
2023/09/12 08:27:45;;;;;;;11.82;8.52;;;27.30;44.40;;;;;;5009070;28;114632;-79
2023/09/12 08:30:12;;;;;;;14.30;9.02;;;27.30;45.00;;;;;;5010084;28;114391;-79
2023/09/12 08:32:43;;;;;;;14.60;8.90;;;27.40;44.30;;;;;;5028245;28;114348;-80
2023/09/12 08:35:14;;;;;;;11.93;9.57;;;27.50;44.30;;;;;;5026496;27;115484;-78
2023/09/12 08:37:42;;;;;;;14.05;9.02;;;27.50;43.30;;;;;;5027346;27;114696;-78
2023/09/12 08:40:10;;;;;;;12.68;8.10;;;27.50;43.10;;;;;;5013262;28;114168;-79
2023/09/12 08:42:40;;;;;;;10.75;8.70;;;27.60;42.90;;;;;;5031365;28;114203;-78
2023/09/12 08:45:14;;;;;;;11.52;8.25;;;27.60;43.20;;;;;;5029280;28;114894;-78
2023/09/12 08:47:45;;;;;;;12.63;8.52;;;27.70;43.20;;;;;;5028772;28;115883;-78
2023/09/12 08:50:14;;;;;;;12.27;9.50;;;27.80;42.70;;;;;;5031100;27;114311;-78
2023/09/12 08:52:42;;;;;;;18.42;10.25;;;27.80;42.70;;;;;;5029955;28;114382;-79
2023/09/12 08:55:25;;;;;;;13.75;8.18;;;27.90;42.90;;;;;;5014196;28;115108;-79
2023/09/12 08:57:53;;;;;;;11.60;8.32;;;28.00;42.20;;;;;;5012363;28;115977;-79
2023/09/12 09:00:21;;;;;;;12.07;7.90;;;28.10;41.60;;;;;;5013141;28;114324;-79
2023/09/12 09:02:48;;;;;;;10.05;7.65;;;28.20;41.60;;;;;;5013356;28;114139;-78
2023/09/12 09:05:15;;;;;;;13.38;7.97;;;28.30;40.90;;;;;;5011866;28;115176;-79
2023/09/12 09:07:43;;;;;;;9.82;7.43;;;28.40;40.60;;;;;;5011803;28;117937;-78
2023/09/12 09:10:18;;;;;;;9.00;7.70;;;28.40;40.80;;;;;;5029560;28;114250;-79
2023/09/12 09:12:54;;;;;;;10.40;7.70;;;28.60;41.00;;;;;;5030980;28;114280;-80
2023/09/12 09:15:26;;;;;;;10.57;7.70;;;28.60;40.20;;;;;;5027342;28;116141;-80
2023/09/12 09:17:55;;;;;;;10.98;6.90;;;28.60;39.60;;;;;;5029662;28;115036;-78
2023/09/12 09:20:29;;;;;;;15.77;7.63;;;28.70;40.00;;;;;;5030362;28;114233;-79
2023/09/12 09:22:57;;;;;;;12.88;7.95;;;28.70;40.60;;;;;;5029649;28;113991;-79
2023/09/12 09:25:24;;;;;;;12.63;8.30;;;28.60;40.70;;;;;;5029784;27;115445;-79
2023/09/12 09:27:51;;;;;;;15.95;12.75;;;28.70;40.20;;;;;;5029502;27;115175;-78
2023/09/12 09:30:20;;;;;;;13.20;9.00;;;28.70;40.10;;;;;;5030118;28;114115;-80
2023/09/12 09:32:47;;;;;;;9.77;7.85;;;28.80;39.70;;;;;;5029330;28;114424;-78
2023/09/12 09:35:15;;;;;;;11.38;7.72;;;28.70;40.10;;;;;;5028105;28;115584;-78
2023/09/12 09:37:42;;;;;;;9.93;7.22;;;28.70;40.30;;;;;;5029247;28;114943;-78
2023/09/12 09:40:09;;;;;;;11.82;7.35;;;28.80;40.70;;;;;;5013447;28;114216;-79
2023/09/12 09:42:37;;;;;;;9.55;7.70;;;28.80;39.90;;;;;;5030389;28;114069;-80
2023/09/12 09:45:05;;;;;;;9.18;6.80;;;28.80;39.90;;;;;;5011411;28;115145;-80
2023/09/12 09:47:32;;;;;;;9.40;7.47;;;28.80;39.10;;;;;;5027539;28;116183;-78
2023/09/12 09:49:59;;;;;;;10.45;6.65;;;28.80;39.40;;;;;;5030016;27;114243;-78
2023/09/12 09:52:29;;;;;;;9.45;6.95;;;28.80;39.20;;;;;;5028771;28;114372;-79
2023/09/12 09:54:56;;;;;;;10.82;7.18;;;28.80;39.00;;;;;;5028847;27;115145;-78
2023/09/12 09:57:25;;;;;;;8.20;7.10;;;28.80;39.40;;;;;;5027730;28;115105;-79
2023/09/12 09:59:53;;;;;;;13.20;7.07;;;28.90;39.60;;;;;;5030069;28;114079;-79
2023/09/12 10:02:22;;;;;;;9.48;7.10;;;29.00;39.30;;;;;;5012275;28;114388;-78
2023/09/12 10:04:50;;;;;;;10.02;7.63;;;29.10;38.80;;;;;;5027770;28;114915;-78
2023/09/12 10:07:26;;;;;;;10.18;7.30;;;29.10;38.60;;;;;;5012113;28;115876;-80
2023/09/12 10:09:53;;;;;;;8.40;6.88;;;29.10;38.80;;;;;;5012049;28;114302;-79
2023/09/12 10:12:20;;;;;;;9.45;7.68;;;29.10;38.60;;;;;;5028945;28;114463;-79
2023/09/12 10:14:47;;;;;;;9.98;7.55;;;29.20;37.90;;;;;;5027080;27;116134;-78
2023/09/12 10:17:14;;;;;;;9.68;7.65;;;29.10;38.40;;;;;;5030866;27;114733;-78
2023/09/12 10:19:45;;;;;;;10.10;7.88;;;29.20;38.30;;;;;;5014727;27;114453;-79
2023/09/12 10:22:39;;;;;;;10.43;7.57;;;29.30;38.20;;;;;;5031806;27;114235;-79
2023/09/12 10:25:06;;;;;;;8.93;7.28;;;29.30;37.90;;;;;;5033574;27;115022;-79
2023/09/12 10:27:34;;;;;;;8.40;7.45;;;29.30;37.70;;;;;;5014275;27;114773;-79
2023/09/12 10:30:02;;;;;;;7.78;6.97;;;29.30;37.90;;;;;;5049916;27;114144;-80
2023/09/12 10:32:30;;;;;;;11.43;8.60;;;29.40;38.20;;;;;;5015000;27;114352;-80
2023/09/12 10:34:58;;;;;;;10.02;7.72;;;29.40;38.90;;;;;;5030756;27;114978;-79
2023/09/12 10:37:26;;;;;;;9.82;7.60;;;29.40;38.70;;;;;;5030861;27;115911;-79
2023/09/12 10:39:53;;;;;;;9.75;7.72;;;29.40;38.40;;;;;;5049511;27;114236;-79
2023/09/12 10:42:21;;;;;;;8.88;7.72;;;29.40;38.50;;;;;;5031710;27;114279;-80
2023/09/12 10:44:48;;;;;;;10.57;7.45;;;29.30;38.60;;;;;;5013713;27;114997;-79
2023/09/12 10:47:15;;;;;;;9.50;7.90;;;29.20;38.80;;;;;;4997253;27;115151;-79
2023/09/12 10:49:43;;;;;;;10.82;7.43;;;29.20;39.00;;;;;;5031709;27;114053;-80
2023/09/12 10:52:11;;;;;;;10.38;7.43;;;29.20;39.00;;;;;;4998347;27;114262;-79
2023/09/12 10:54:39;;;;;;;9.95;8.20;;;29.20;39.40;;;;;;5030513;27;114885;-79
2023/09/12 10:57:07;;;;;;;10.05;7.53;;;29.20;39.60;;;;;;5013710;27;116788;-79
2023/09/12 10:59:37;;;;;;;9.77;7.90;;;29.30;39.20;;;;;;5013533;27;114159;-78
2023/09/12 11:02:29;;;;;;;10.95;7.57;;;29.30;39.10;;;;;;5032006;27;114305;-79
2023/09/12 11:05:00;;;;;;;9.23;7.68;;;29.40;39.00;;;;;;5048184;27;114875;-79
2023/09/12 11:07:32;;;;;;;9.45;7.63;;;29.30;38.60;;;;;;5013579;27;114828;-79
2023/09/12 11:10:26;;;;;;;9.95;7.82;;;29.40;39.20;;;;;;5030874;27;114450;-79
2023/09/12 11:12:54;;;;;;;;;;;29.50;38.90;;;;;;5046118;27;114482;-79
2023/09/12 11:15:26;;;;;;;10.80;8.30;;;29.30;39.40;;;;;;5030206;27;115396;-78
2023/09/12 11:18:01;;;;;;;9.48;8.38;;;29.20;39.10;;;;;;5030168;27;114715;-79
2023/09/12 11:21:03;;;;;;;10.75;8.38;;;29.30;39.30;;;;;;5030789;27;114377;-79
2023/09/12 11:23:34;;;;;;;9.77;7.95;;;29.30;39.10;;;;;;5031035;27;114849;-80
2023/09/12 11:26:06;;;;;;;11.75;7.82;;;29.20;38.50;;;;;;5030271;27;115506;-80
2023/09/12 11:28:33;;;;;;;8.93;7.82;;;29.00;38.80;;;;;;5048078;27;114691;-78
2023/09/12 11:31:00;;;;;;;9.02;8.13;;;28.90;39.10;;;;;;5014562;27;114170;-79
2023/09/12 11:33:27;;;;;;;9.68;8.32;;;28.80;39.40;;;;;;5030774;27;114209;-79
2023/09/12 11:35:55;;;;;;;10.43;7.95;;;28.80;39.50;;;;;;5029538;27;115218;-78
2023/09/12 11:38:29;;;;;;;9.25;7.63;;;28.90;39.10;;;;;;5012887;27;114660;-79
2023/09/12 11:40:57;;;;;;;9.63;7.95;;;29.00;39.10;;;;;;5048733;27;114410;-78
2023/09/12 11:43:25;;;;;;;11.55;8.38;;;29.00;39.20;;;;;;5030873;27;114420;-78
2023/09/12 11:45:52;;;;;;;9.50;7.53;;;29.00;39.10;;;;;;5012977;27;115081;-80
2023/09/12 11:48:19;;;;;;;13.85;7.90;;;29.10;39.00;;;;;;4996355;27;114744;-80
2023/09/12 11:50:51;;;;;;;11.38;8.13;;;29.20;39.20;;;;;;5030506;27;115033;-78
2023/09/12 11:53:21;;;;;;;10.07;7.75;;;29.30;39.40;;;;;;5048673;27;114128;-78
2023/09/12 11:55:51;;;;;;;9.38;8.38;;;29.30;39.10;;;;;;5028578;27;118268;-79
2023/09/12 11:58:19;;;;;;;9.30;8.13;;;29.30;38.90;;;;;;5029679;27;115285;-79
2023/09/12 12:00:49;;;;;;;9.68;8.48;;;29.30;39.20;;;;;;5047924;27;114377;-79
2023/09/12 12:03:17;;;;;;;9.25;8.20;;;29.40;39.00;;;;;;5029944;27;114334;-79
2023/09/12 12:05:44;;;;;;;9.23;8.05;;;29.40;39.00;;;;;;5047216;27;115575;-79
2023/09/12 12:08:11;;;;;;;10.90;8.75;;;29.40;39.40;;;;;;5047211;27;114645;-79
2023/09/12 12:11:00;;;;;;;9.73;8.27;;;29.40;39.40;;;;;;5047817;27;114443;-79
2023/09/12 12:13:28;;;;;;;9.93;8.45;;;29.40;39.20;;;;;;5030967;27;114377;-79
2023/09/12 12:15:56;;;;;;;10.55;7.90;;;29.40;39.00;;;;;;5028214;27;115563;-79
2023/09/12 12:18:24;;;;;;;11.00;8.48;;;29.40;38.80;;;;;;4995978;27;114613;-78
2023/09/12 12:20:52;;;;;;;8.05;7.25;;;29.30;38.90;;;;;;5029861;27;114923;-79
2023/09/12 12:23:19;;;;;;;11.75;7.65;;;29.40;38.60;;;;;;5029823;27;114521;-79
2023/09/12 12:25:46;;;;;;;10.80;7.78;;;29.40;38.50;;;;;;5046779;27;114864;-79
2023/09/12 12:28:13;;;;;;;10.18;8.10;;;29.40;38.60;;;;;;5029091;27;114641;-79
2023/09/12 12:30:40;;;;;;;8.57;7.63;;;29.40;38.30;;;;;;5029912;27;114403;-80
2023/09/12 12:33:09;;;;;;;12.25;7.85;;;29.40;38.20;;;;;;5030048;27;114351;-79